• Join FlightAware (Why Join?)
  • Login
  • US Flag 
08:41AM EDT


 

Airport Tracker/Info


-or-


 

Live Flight TrackerFlight Track Log ✈ SKW4495 ✈ 02-May-2012 ✈ KCVG - KORD

Flight Track Log - Related Links

Times and Time Zones

All times are in EDT time to prevent confusion due to time zone crossing. See the SKW4495 flight status page for this flight to view local times or setup timezone preferences in your user account.

Time Position Orientation Groundspeed Altitude Reporting Facility
EDT Latitude Longitude Course Direction KTS MPH feet Rate Location/Type
07:17AM 39.0500 -84.6833 270° West 148 170 1,300  Level Cincinnati TRACON
07:18AM 39.0500 -84.7333 337° Northwest 170 196 3,100 2,160 Climbing Cincinnati TRACON
07:20AM 39.2081 -84.8219 338° Northwest 259 298 8,700 2,220 Climbing Indianapolis Center
07:21AM 39.2892 -84.8636 336° Northwest 277 319 10,900 2,280 Climbing Indianapolis Center
07:22AM 39.3553 -84.9025 339° North 295 339 13,300 2,220 Climbing Indianapolis Center
07:23AM 39.4383 -84.9442 337° Northwest 308 354 15,400 2,100 Climbing Indianapolis Center
07:24AM 39.5314 -84.9944 336° Northwest 315 362 17,500 1,680 Climbing Indianapolis Center
07:25AM 39.6164 -85.0447 338° Northwest 320 368 18,800 1,320 Climbing Indianapolis Center
07:26AM 39.7053 -85.0925 337° Northwest 332 382 20,200 1,440 Climbing Indianapolis Center
07:27AM 39.7964 -85.1431 324° Northwest 346 398 21,700 480 Climbing Indianapolis Center
07:30AM 40.0031 -85.3358 314° West 366 421 22,000 60 Climbing Chicago Center
07:31AM 40.0753 -85.4319 315° West 371 427 22,000  Level Chicago Center
07:32AM 40.1475 -85.5281 315° West 371 427 22,000  Level Chicago Center
07:33AM 40.2214 -85.6244 315° West 371 427 22,000  Level Chicago Center
07:34AM 40.2956 -85.7211 313° West 371 427 22,000  Level Chicago Center
07:35AM 40.3675 -85.8236 315° West 376 433 22,000  Level Chicago Center
07:36AM 40.4414 -85.9206 314° West 381 438 22,000  Level Chicago Center
07:37AM 40.5067 -86.0100 315° West 381 438 22,000  Level Chicago Center
07:38AM 40.5825 -86.1100 313° West 381 438 22,000  Level Chicago Center
07:39AM 40.6519 -86.2081 314° West 381 438 22,000  Level Chicago Center
07:40AM 40.7278 -86.3111 315° West 381 438 22,000  Level Chicago Center
07:41AM 40.8078 -86.4172 315° West 381 438 22,000  Level Chicago Center
07:42AM 40.8811 -86.5156 313° West 381 438 22,000  Level Chicago Center
07:43AM 40.9544 -86.6197 313° West 381 438 22,000  Level Chicago Center
07:44AM 41.0256 -86.7214 315° West 381 438 22,000 -60 Level Chicago Center
07:45AM 41.1008 -86.8231 313° West 381 438 21,900 -1,560 Descending Chicago Center
07:46AM 41.1697 -86.9197 315° West 381 438 18,900 -3,060 Descending Chicago Center
07:47AM 41.2406 -87.0136 313° West 374 430 15,800 -3,060 Descending Chicago Center
07:48AM 41.2986 -87.0972 313° West 359 413 12,800 -2,400 Descending Chicago Center
07:49AM 41.3608 -87.1864 317° Northwest 341 392 11,000 -900 Descending Chicago Center
07:50AM 41.4311 -87.2728 318° Northwest 336 387 11,000  Level Chicago Center
07:51AM 41.5014 -87.3564 326° Northwest 336 387 11,000  Level Chicago Center
07:51AM 41.5500 -87.4000 317° Northwest 348 400 11,000  Level Chicago TRACON
07:52AM 41.6167 -87.4833 320° Northwest 345 397 11,000  Level Chicago TRACON
07:54AM 41.7244 -87.6056 317° Northwest 342 394 11,000  Level Chicago Center
07:55AM 41.7922 -87.6900 293° West 342 394 11,000 -540 Level Chicago Center
07:56AM 41.8272 -87.8033 296° West 321 369 10,000 -960 Descending Chicago Center
07:56AM 41.8500 -87.8667 298° West 270 311 9,600 -1,260 Descending Chicago TRACON
07:57AM 41.8833 -87.9500 313° West 259 298 8,100 -600 Descending Chicago TRACON
08:00AM 42.0000 -88.1167 346° North 207 238 7,200 -840 Descending Chicago TRACON
08:01AM 42.0500 -88.1333 90° East 228 262 4,900 -1,680 Descending Chicago TRACON
08:03AM 42.0500 -88.0000 143° Southeast 209 241 2,300 -1,200 Descending Chicago TRACON
08:04AM 42.0167 -87.9667 143° Southeast 138 159 1,400 -900 Descending Chicago TRACON